sensor_id;sensor_type;location;lat;lon;timestamp;temperature;humidity
42201;DHT22;27869;51.442;7.540;2022-12-29T00:00:20;9.70;99.90
42201;DHT22;27869;51.442;7.540;2022-12-29T00:02:48;9.70;99.90
42201;DHT22;27869;51.442;7.540;2022-12-29T00:05:15;9.80;99.90
42201;DHT22;27869;51.442;7.540;2022-12-29T00:07:42;9.80;99.90
42201;DHT22;27869;51.442;7.540;2022-12-29T00:10:09;9.80;99.90
42201;DHT22;27869;51.442;7.540;2022-12-29T00:12:36;9.80;99.90
42201;DHT22;27869;51.442;7.540;2022-12-29T00:15:20;9.90;99.90
42201;DHT22;27869;51.442;7.540;2022-12-29T00:18:07;9.90;99.90
42201;DHT22;27869;51.442;7.540;2022-12-29T00:20:34;9.90;99.90
42201;DHT22;27869;51.442;7.540;2022-12-29T00:23:19;9.90;99.90
42201;DHT22;27869;51.442;7.540;2022-12-29T00:26:04;10.00;99.90
42201;DHT22;27869;51.442;7.540;2022-12-29T00:28:50;10.00;99.90
42201;DHT22;27869;51.442;7.540;2022-12-29T00:31:34;10.10;99.90
42201;DHT22;27869;51.442;7.540;2022-12-29T00:34:20;10.10;99.90
42201;DHT22;27869;51.442;7.540;2022-12-29T00:37:05;10.10;99.90
42201;DHT22;27869;51.442;7.540;2022-12-29T00:39:31;10.10;99.90
42201;DHT22;27869;51.442;7.540;2022-12-29T00:42:16;10.10;99.90
42201;DHT22;27869;51.442;7.540;2022-12-29T00:44:59;10.20;99.90
42201;DHT22;27869;51.442;7.540;2022-12-29T00:47:26;10.20;99.90
42201;DHT22;27869;51.442;7.540;2022-12-29T00:49:54;10.20;99.90
42201;DHT22;27869;51.442;7.540;2022-12-29T00:52:21;10.20;99.90
42201;DHT22;27869;51.442;7.540;2022-12-29T00:54:48;10.20;99.90
42201;DHT22;27869;51.442;7.540;2022-12-29T00:57:15;10.20;99.90
42201;DHT22;27869;51.442;7.540;2022-12-29T00:59:42;10.20;99.90
42201;DHT22;27869;51.442;7.540;2022-12-29T01:02:11;10.20;99.90
42201;DHT22;27869;51.442;7.540;2022-12-29T01:04:38;10.20;99.90
42201;DHT22;27869;51.442;7.540;2022-12-29T01:07:06;10.20;99.90
42201;DHT22;27869;51.442;7.540;2022-12-29T01:09:33;10.20;99.90
42201;DHT22;27869;51.442;7.540;2022-12-29T01:12:18;10.20;99.90
42201;DHT22;27869;51.442;7.540;2022-12-29T01:15:07;10.20;99.90
42201;DHT22;27869;51.442;7.540;2022-12-29T01:17:34;10.30;99.90
42201;DHT22;27869;51.442;7.540;2022-12-29T01:20:01;10.30;99.90
42201;DHT22;27869;51.442;7.540;2022-12-29T01:22:30;10.20;99.90
42201;DHT22;27869;51.442;7.540;2022-12-29T01:24:57;10.30;99.90
42201;DHT22;27869;51.442;7.540;2022-12-29T01:27:24;10.30;99.90
42201;DHT22;27869;51.442;7.540;2022-12-29T01:29:50;10.30;99.90
42201;DHT22;27869;51.442;7.540;2022-12-29T01:32:17;10.30;99.90
42201;DHT22;27869;51.442;7.540;2022-12-29T01:34:44;10.30;99.90
42201;DHT22;27869;51.442;7.540;2022-12-29T01:37:11;10.30;99.90
42201;DHT22;27869;51.442;7.540;2022-12-29T01:39:40;10.30;99.90
42201;DHT22;27869;51.442;7.540;2022-12-29T01:42:13;10.30;99.90
42201;DHT22;27869;51.442;7.540;2022-12-29T01:44:54;10.30;99.90
42201;DHT22;27869;51.442;7.540;2022-12-29T01:47:30;10.30;99.90
42201;DHT22;27869;51.442;7.540;2022-12-29T01:50:00;10.30;99.90
42201;DHT22;27869;51.442;7.540;2022-12-29T01:52:31;10.40;99.90
42201;DHT22;27869;51.442;7.540;2022-12-29T01:55:02;10.40;99.90
42201;DHT22;27869;51.442;7.540;2022-12-29T01:57:32;10.40;99.90
42201;DHT22;27869;51.442;7.540;2022-12-29T02:00:03;10.40;99.90
42201;DHT22;27869;51.442;7.540;2022-12-29T02:02:31;10.40;99.90
42201;DHT22;27869;51.442;7.540;2022-12-29T02:04:59;10.40;99.90
42201;DHT22;27869;51.442;7.540;2022-12-29T02:07:29;10.50;99.90
42201;DHT22;27869;51.442;7.540;2022-12-29T02:09:56;10.40;99.90
42201;DHT22;27869;51.442;7.540;2022-12-29T02:12:25;10.40;99.90
42201;DHT22;27869;51.442;7.540;2022-12-29T02:14:59;10.40;99.90
42201;DHT22;27869;51.442;7.540;2022-12-29T02:17:38;10.50;99.90
42201;DHT22;27869;51.442;7.540;2022-12-29T02:23:50;10.60;99.90
42201;DHT22;27869;51.442;7.540;2022-12-29T02:26:40;10.60;99.90
42201;DHT22;27869;51.442;7.540;2022-12-29T02:32:17;10.60;99.90
42201;DHT22;27869;51.442;7.540;2022-12-29T02:34:49;10.60;99.90
42201;DHT22;27869;51.442;7.540;2022-12-29T02:37:22;10.60;99.90
42201;DHT22;27869;51.442;7.540;2022-12-29T02:39:56;10.70;99.90
42201;DHT22;27869;51.442;7.540;2022-12-29T02:42:34;10.70;99.90
42201;DHT22;27869;51.442;7.540;2022-12-29T02:45:05;10.70;99.90
42201;DHT22;27869;51.442;7.540;2022-12-29T02:47:39;10.70;99.90
42201;DHT22;27869;51.442;7.540;2022-12-29T02:50:15;10.70;99.90
42201;DHT22;27869;51.442;7.540;2022-12-29T02:52:47;10.70;99.90
42201;DHT22;27869;51.442;7.540;2022-12-29T02:55:15;10.70;99.90
42201;DHT22;27869;51.442;7.540;2022-12-29T02:57:41;10.70;99.90
42201;DHT22;27869;51.442;7.540;2022-12-29T03:00:10;10.60;99.90
42201;DHT22;27869;51.442;7.540;2022-12-29T03:03:15;10.70;99.90
42201;DHT22;27869;51.442;7.540;2022-12-29T03:06:07;10.70;99.90
42201;DHT22;27869;51.442;7.540;2022-12-29T03:08:44;10.70;99.90
42201;DHT22;27869;51.442;7.540;2022-12-29T03:11:13;10.70;99.90
42201;DHT22;27869;51.442;7.540;2022-12-29T03:13:59;10.80;99.90
42201;DHT22;27869;51.442;7.540;2022-12-29T03:16:46;10.80;99.90
42201;DHT22;27869;51.442;7.540;2022-12-29T03:19:20;10.80;99.90
42201;DHT22;27869;51.442;7.540;2022-12-29T03:21:53;10.80;99.90
42201;DHT22;27869;51.442;7.540;2022-12-29T03:24:42;10.80;99.90
42201;DHT22;27869;51.442;7.540;2022-12-29T03:27:12;10.80;99.90
42201;DHT22;27869;51.442;7.540;2022-12-29T03:29:44;10.90;99.90
42201;DHT22;27869;51.442;7.540;2022-12-29T03:32:13;10.80;99.90
42201;DHT22;27869;51.442;7.540;2022-12-29T03:34:43;10.90;99.90
42201;DHT22;27869;51.442;7.540;2022-12-29T03:37:12;10.80;99.90
42201;DHT22;27869;51.442;7.540;2022-12-29T03:39:41;10.80;99.90
42201;DHT22;27869;51.442;7.540;2022-12-29T03:42:11;10.80;99.90
42201;DHT22;27869;51.442;7.540;2022-12-29T03:44:41;10.80;99.90
42201;DHT22;27869;51.442;7.540;2022-12-29T03:47:09;10.80;99.90
42201;DHT22;27869;51.442;7.540;2022-12-29T03:49:36;10.80;99.90
42201;DHT22;27869;51.442;7.540;2022-12-29T03:52:05;10.70;99.90
42201;DHT22;27869;51.442;7.540;2022-12-29T03:54:32;10.70;99.90
42201;DHT22;27869;51.442;7.540;2022-12-29T03:56:59;10.70;99.90
42201;DHT22;27869;51.442;7.540;2022-12-29T03:59:26;10.70;99.90
42201;DHT22;27869;51.442;7.540;2022-12-29T04:01:52;10.60;99.90
42201;DHT22;27869;51.442;7.540;2022-12-29T04:04:19;10.60;99.90
42201;DHT22;27869;51.442;7.540;2022-12-29T04:06:46;10.60;99.90
42201;DHT22;27869;51.442;7.540;2022-12-29T04:09:14;10.60;99.90
42201;DHT22;27869;51.442;7.540;2022-12-29T04:11:41;10.60;99.90
42201;DHT22;27869;51.442;7.540;2022-12-29T04:14:08;10.60;99.90
42201;DHT22;27869;51.442;7.540;2022-12-29T04:16:35;10.50;99.90
42201;DHT22;27869;51.442;7.540;2022-12-29T04:19:04;10.50;99.90
42201;DHT22;27869;51.442;7.540;2022-12-29T04:21:31;10.50;99.90
42201;DHT22;27869;51.442;7.540;2022-12-29T04:23:57;10.50;99.90
42201;DHT22;27869;51.442;7.540;2022-12-29T04:26:25;10.50;99.90
42201;DHT22;27869;51.442;7.540;2022-12-29T04:28:52;10.50;99.90
42201;DHT22;27869;51.442;7.540;2022-12-29T04:31:19;10.50;99.90
42201;DHT22;27869;51.442;7.540;2022-12-29T04:33:46;10.50;99.90
42201;DHT22;27869;51.442;7.540;2022-12-29T04:36:12;10.50;99.90
42201;DHT22;27869;51.442;7.540;2022-12-29T04:38:39;10.50;99.90
42201;DHT22;27869;51.442;7.540;2022-12-29T04:41:07;10.50;99.90
42201;DHT22;27869;51.442;7.540;2022-12-29T04:43:35;10.50;99.90
42201;DHT22;27869;51.442;7.540;2022-12-29T04:46:02;10.50;99.90
42201;DHT22;27869;51.442;7.540;2022-12-29T04:48:29;10.60;99.90
42201;DHT22;27869;51.442;7.540;2022-12-29T04:50:56;10.60;99.90
42201;DHT22;27869;51.442;7.540;2022-12-29T04:53:23;10.60;99.90
42201;DHT22;27869;51.442;7.540;2022-12-29T04:55:50;10.60;99.90
42201;DHT22;27869;51.442;7.540;2022-12-29T04:58:17;10.60;99.90
42201;DHT22;27869;51.442;7.540;2022-12-29T05:00:46;10.60;99.90
42201;DHT22;27869;51.442;7.540;2022-12-29T05:03:13;10.70;99.90
42201;DHT22;27869;51.442;7.540;2022-12-29T05:05:39;10.70;99.90
42201;DHT22;27869;51.442;7.540;2022-12-29T05:08:07;10.70;99.90
42201;DHT22;27869;51.442;7.540;2022-12-29T05:10:34;10.70;99.90
42201;DHT22;27869;51.442;7.540;2022-12-29T05:13:01;10.70;99.90
42201;DHT22;27869;51.442;7.540;2022-12-29T05:15:27;10.80;99.90
42201;DHT22;27869;51.442;7.540;2022-12-29T05:17:56;10.80;99.90
42201;DHT22;27869;51.442;7.540;2022-12-29T05:20:22;10.80;99.90
42201;DHT22;27869;51.442;7.540;2022-12-29T05:22:49;10.90;99.90
42201;DHT22;27869;51.442;7.540;2022-12-29T05:25:16;10.90;99.90
42201;DHT22;27869;51.442;7.540;2022-12-29T05:27:43;11.00;99.90
42201;DHT22;27869;51.442;7.540;2022-12-29T05:30:11;11.00;99.90
42201;DHT22;27869;51.442;7.540;2022-12-29T05:32:38;11.00;99.90
42201;DHT22;27869;51.442;7.540;2022-12-29T05:35:08;11.00;99.90
42201;DHT22;27869;51.442;7.540;2022-12-29T05:37:35;11.00;99.90
42201;DHT22;27869;51.442;7.540;2022-12-29T05:40:02;11.10;99.90
42201;DHT22;27869;51.442;7.540;2022-12-29T05:42:29;11.00;99.90
42201;DHT22;27869;51.442;7.540;2022-12-29T05:44:55;11.10;99.90
42201;DHT22;27869;51.442;7.540;2022-12-29T05:47:22;11.10;99.90
42201;DHT22;27869;51.442;7.540;2022-12-29T05:49:49;11.10;99.90
42201;DHT22;27869;51.442;7.540;2022-12-29T05:52:18;11.10;99.90
42201;DHT22;27869;51.442;7.540;2022-12-29T05:54:45;11.20;99.90
42201;DHT22;27869;51.442;7.540;2022-12-29T05:57:12;11.20;99.90
42201;DHT22;27869;51.442;7.540;2022-12-29T05:59:39;11.20;99.90
42201;DHT22;27869;51.442;7.540;2022-12-29T06:02:05;11.20;99.90
42201;DHT22;27869;51.442;7.540;2022-12-29T06:04:32;11.20;99.90
42201;DHT22;27869;51.442;7.540;2022-12-29T06:06:59;11.20;99.90
42201;DHT22;27869;51.442;7.540;2022-12-29T06:09:27;11.30;99.90
42201;DHT22;27869;51.442;7.540;2022-12-29T06:11:54;11.30;99.90
42201;DHT22;27869;51.442;7.540;2022-12-29T06:14:21;11.30;99.90
42201;DHT22;27869;51.442;7.540;2022-12-29T06:16:48;11.30;99.90
42201;DHT22;27869;51.442;7.540;2022-12-29T06:19:15;11.30;99.90
42201;DHT22;27869;51.442;7.540;2022-12-29T06:21:41;11.30;99.90
42201;DHT22;27869;51.442;7.540;2022-12-29T06:24:08;11.30;99.90
42201;DHT22;27869;51.442;7.540;2022-12-29T06:26:37;11.30;99.90
42201;DHT22;27869;51.442;7.540;2022-12-29T06:29:05;11.30;99.90
42201;DHT22;27869;51.442;7.540;2022-12-29T06:31:33;11.30;99.90
42201;DHT22;27869;51.442;7.540;2022-12-29T06:34:00;11.30;99.90
42201;DHT22;27869;51.442;7.540;2022-12-29T06:36:28;11.30;99.90
42201;DHT22;27869;51.442;7.540;2022-12-29T06:38:55;11.30;99.90
42201;DHT22;27869;51.442;7.540;2022-12-29T06:41:22;11.30;99.90
42201;DHT22;27869;51.442;7.540;2022-12-29T06:43:50;11.30;99.90
42201;DHT22;27869;51.442;7.540;2022-12-29T06:46:17;11.30;99.90
42201;DHT22;27869;51.442;7.540;2022-12-29T06:48:44;11.30;99.90
42201;DHT22;27869;51.442;7.540;2022-12-29T06:51:11;11.30;99.90
42201;DHT22;27869;51.442;7.540;2022-12-29T06:53:38;11.30;99.90
42201;DHT22;27869;51.442;7.540;2022-12-29T06:56:05;11.30;99.90
42201;DHT22;27869;51.442;7.540;2022-12-29T06:58:32;11.30;99.90
42201;DHT22;27869;51.442;7.540;2022-12-29T07:01:00;11.30;99.90
42201;DHT22;27869;51.442;7.540;2022-12-29T07:03:27;11.30;99.90
42201;DHT22;27869;51.442;7.540;2022-12-29T07:05:54;11.30;99.90
42201;DHT22;27869;51.442;7.540;2022-12-29T07:08:20;11.40;99.90
42201;DHT22;27869;51.442;7.540;2022-12-29T07:10:47;11.30;99.90
42201;DHT22;27869;51.442;7.540;2022-12-29T07:13:14;11.40;99.90
42201;DHT22;27869;51.442;7.540;2022-12-29T07:15:41;11.40;99.90
42201;DHT22;27869;51.442;7.540;2022-12-29T07:18:09;11.40;99.90
42201;DHT22;27869;51.442;7.540;2022-12-29T07:20:36;11.30;99.90
42201;DHT22;27869;51.442;7.540;2022-12-29T07:23:03;11.30;99.90
42201;DHT22;27869;51.442;7.540;2022-12-29T07:25:30;11.30;99.90
42201;DHT22;27869;51.442;7.540;2022-12-29T07:27:57;11.30;99.90
42201;DHT22;27869;51.442;7.540;2022-12-29T07:30:23;11.20;99.90
42201;DHT22;27869;51.442;7.540;2022-12-29T07:32:50;11.20;99.90
42201;DHT22;27869;51.442;7.540;2022-12-29T07:35:19;11.20;99.90
42201;DHT22;27869;51.442;7.540;2022-12-29T07:37:45;11.20;99.90
42201;DHT22;27869;51.442;7.540;2022-12-29T07:40:12;11.10;99.90
42201;DHT22;27869;51.442;7.540;2022-12-29T07:42:39;11.10;99.90
42201;DHT22;27869;51.442;7.540;2022-12-29T07:45:07;11.10;99.90
42201;DHT22;27869;51.442;7.540;2022-12-29T07:47:35;11.10;99.90
42201;DHT22;27869;51.442;7.540;2022-12-29T07:50:02;11.10;99.90
42201;DHT22;27869;51.442;7.540;2022-12-29T07:52:31;11.10;99.90
42201;DHT22;27869;51.442;7.540;2022-12-29T07:54:57;11.10;99.90
42201;DHT22;27869;51.442;7.540;2022-12-29T07:57:24;11.10;99.90
42201;DHT22;27869;51.442;7.540;2022-12-29T07:59:51;11.00;99.90
42201;DHT22;27869;51.442;7.540;2022-12-29T08:02:18;11.00;99.90
42201;DHT22;27869;51.442;7.540;2022-12-29T08:04:45;11.00;99.90
42201;DHT22;27869;51.442;7.540;2022-12-29T08:07:12;11.00;99.90
42201;DHT22;27869;51.442;7.540;2022-12-29T08:09:40;10.90;99.90
42201;DHT22;27869;51.442;7.540;2022-12-29T08:12:09;10.90;99.90
42201;DHT22;27869;51.442;7.540;2022-12-29T08:14:36;10.90;99.90
42201;DHT22;27869;51.442;7.540;2022-12-29T08:17:03;10.90;99.90
42201;DHT22;27869;51.442;7.540;2022-12-29T08:19:30;10.90;99.90
42201;DHT22;27869;51.442;7.540;2022-12-29T08:21:57;10.90;99.90
42201;DHT22;27869;51.442;7.540;2022-12-29T08:24:24;10.90;99.90
42201;DHT22;27869;51.442;7.540;2022-12-29T08:26:52;10.90;99.90
42201;DHT22;27869;51.442;7.540;2022-12-29T08:29:19;10.90;99.90
42201;DHT22;27869;51.442;7.540;2022-12-29T08:31:47;10.90;99.90
42201;DHT22;27869;51.442;7.540;2022-12-29T08:34:13;11.00;99.90
42201;DHT22;27869;51.442;7.540;2022-12-29T08:36:40;11.00;99.90
42201;DHT22;27869;51.442;7.540;2022-12-29T08:39:07;11.00;99.90
42201;DHT22;27869;51.442;7.540;2022-12-29T08:41:34;11.00;99.90
42201;DHT22;27869;51.442;7.540;2022-12-29T08:44:03;11.00;99.90
42201;DHT22;27869;51.442;7.540;2022-12-29T08:46:29;11.00;99.90
42201;DHT22;27869;51.442;7.540;2022-12-29T08:48:56;11.00;99.90
42201;DHT22;27869;51.442;7.540;2022-12-29T08:51:23;11.10;99.90
42201;DHT22;27869;51.442;7.540;2022-12-29T08:53:50;11.10;99.90
42201;DHT22;27869;51.442;7.540;2022-12-29T08:56:17;11.10;99.90
42201;DHT22;27869;51.442;7.540;2022-12-29T08:58:44;11.00;99.90
42201;DHT22;27869;51.442;7.540;2022-12-29T09:01:12;11.00;99.90
42201;DHT22;27869;51.442;7.540;2022-12-29T09:03:39;11.00;99.90
42201;DHT22;27869;51.442;7.540;2022-12-29T09:06:06;11.00;99.90
42201;DHT22;27869;51.442;7.540;2022-12-29T09:08:33;11.00;99.90
42201;DHT22;27869;51.442;7.540;2022-12-29T09:11:06;11.00;99.90
42201;DHT22;27869;51.442;7.540;2022-12-29T09:13:34;11.00;99.90
42201;DHT22;27869;51.442;7.540;2022-12-29T09:16:01;10.90;99.90
42201;DHT22;27869;51.442;7.540;2022-12-29T09:18:29;10.90;99.90
42201;DHT22;27869;51.442;7.540;2022-12-29T09:20:57;10.70;99.90
42201;DHT22;27869;51.442;7.540;2022-12-29T09:23:24;10.70;99.90
42201;DHT22;27869;51.442;7.540;2022-12-29T09:25:51;10.60;99.90
42201;DHT22;27869;51.442;7.540;2022-12-29T09:28:18;10.50;99.90
42201;DHT22;27869;51.442;7.540;2022-12-29T09:30:46;10.40;99.90
42201;DHT22;27869;51.442;7.540;2022-12-29T09:33:13;10.40;99.90
42201;DHT22;27869;51.442;7.540;2022-12-29T09:35:43;10.40;99.90
42201;DHT22;27869;51.442;7.540;2022-12-29T09:38:10;10.30;99.90
42201;DHT22;27869;51.442;7.540;2022-12-29T09:40:39;10.30;99.90
42201;DHT22;27869;51.442;7.540;2022-12-29T09:43:29;10.30;99.90
42201;DHT22;27869;51.442;7.540;2022-12-29T09:46:06;10.30;99.90
42201;DHT22;27869;51.442;7.540;2022-12-29T09:48:37;10.30;99.90
42201;DHT22;27869;51.442;7.540;2022-12-29T09:51:11;10.30;99.90
42201;DHT22;27869;51.442;7.540;2022-12-29T09:53:42;10.30;99.90
42201;DHT22;27869;51.442;7.540;2022-12-29T09:56:15;10.30;99.90
42201;DHT22;27869;51.442;7.540;2022-12-29T09:58:45;10.30;99.90
42201;DHT22;27869;51.442;7.540;2022-12-29T10:01:23;10.30;99.90
42201;DHT22;27869;51.442;7.540;2022-12-29T10:03:56;10.40;99.90
42201;DHT22;27869;51.442;7.540;2022-12-29T10:06:28;10.30;99.90
42201;DHT22;27869;51.442;7.540;2022-12-29T10:09:02;10.30;99.90
42201;DHT22;27869;51.442;7.540;2022-12-29T10:11:46;10.30;99.90
42201;DHT22;27869;51.442;7.540;2022-12-29T10:17:19;10.40;99.90
42201;DHT22;27869;51.442;7.540;2022-12-29T10:20:05;10.40;99.90
42201;DHT22;27869;51.442;7.540;2022-12-29T10:22:48;10.40;99.90
42201;DHT22;27869;51.442;7.540;2022-12-29T10:25:20;10.50;99.90
42201;DHT22;27869;51.442;7.540;2022-12-29T10:27:48;10.50;99.90
42201;DHT22;27869;51.442;7.540;2022-12-29T10:30:16;10.60;99.90
42201;DHT22;27869;51.442;7.540;2022-12-29T10:32:49;10.60;99.90
42201;DHT22;27869;51.442;7.540;2022-12-29T10:35:20;10.60;99.90
42201;DHT22;27869;51.442;7.540;2022-12-29T10:37:54;10.70;99.90
42201;DHT22;27869;51.442;7.540;2022-12-29T10:40:27;10.70;99.90
42201;DHT22;27869;51.442;7.540;2022-12-29T10:42:57;10.70;99.90
42201;DHT22;27869;51.442;7.540;2022-12-29T10:45:27;10.70;99.90
42201;DHT22;27869;51.442;7.540;2022-12-29T10:47:59;10.80;99.90
42201;DHT22;27869;51.442;7.540;2022-12-29T10:50:27;10.80;99.90
42201;DHT22;27869;51.442;7.540;2022-12-29T10:52:59;10.80;99.90
42201;DHT22;27869;51.442;7.540;2022-12-29T10:55:30;10.80;99.90
42201;DHT22;27869;51.442;7.540;2022-12-29T10:58:02;10.90;99.90
42201;DHT22;27869;51.442;7.540;2022-12-29T11:00:31;10.80;99.90
42201;DHT22;27869;51.442;7.540;2022-12-29T11:03:17;10.90;99.90
42201;DHT22;27869;51.442;7.540;2022-12-29T11:05:52;10.90;99.90
42201;DHT22;27869;51.442;7.540;2022-12-29T11:08:25;10.90;99.90
42201;DHT22;27869;51.442;7.540;2022-12-29T11:10:58;10.90;99.90
42201;DHT22;27869;51.442;7.540;2022-12-29T11:13:29;10.90;99.90
42201;DHT22;27869;51.442;7.540;2022-12-29T11:15:56;11.00;99.90
42201;DHT22;27869;51.442;7.540;2022-12-29T11:18:24;11.00;99.90
42201;DHT22;27869;51.442;7.540;2022-12-29T11:20:53;11.00;99.90
42201;DHT22;27869;51.442;7.540;2022-12-29T11:23:29;11.00;99.90
42201;DHT22;27869;51.442;7.540;2022-12-29T11:26:11;10.90;99.90
42201;DHT22;27869;51.442;7.540;2022-12-29T11:28:40;11.00;99.90
42201;DHT22;27869;51.442;7.540;2022-12-29T11:31:08;11.00;99.90
42201;DHT22;27869;51.442;7.540;2022-12-29T11:33:37;11.00;99.90
42201;DHT22;27869;51.442;7.540;2022-12-29T11:36:06;11.00;99.90
42201;DHT22;27869;51.442;7.540;2022-12-29T11:38:37;11.00;99.90
42201;DHT22;27869;51.442;7.540;2022-12-29T11:41:06;10.90;99.90
42201;DHT22;27869;51.442;7.540;2022-12-29T11:43:37;11.00;99.90
42201;DHT22;27869;51.442;7.540;2022-12-29T11:46:06;10.90;99.90
42201;DHT22;27869;51.442;7.540;2022-12-29T11:48:40;10.90;99.90
42201;DHT22;27869;51.442;7.540;2022-12-29T11:51:08;11.00;99.90
42201;DHT22;27869;51.442;7.540;2022-12-29T11:53:42;10.90;99.90
42201;DHT22;27869;51.442;7.540;2022-12-29T11:56:12;10.90;99.90
42201;DHT22;27869;51.442;7.540;2022-12-29T11:58:41;10.90;99.90
42201;DHT22;27869;51.442;7.540;2022-12-29T12:01:13;11.00;99.90
42201;DHT22;27869;51.442;7.540;2022-12-29T12:03:45;10.90;99.90
42201;DHT22;27869;51.442;7.540;2022-12-29T12:06:17;10.90;99.90
42201;DHT22;27869;51.442;7.540;2022-12-29T12:08:48;10.90;99.90
42201;DHT22;27869;51.442;7.540;2022-12-29T12:11:20;10.90;99.90
42201;DHT22;27869;51.442;7.540;2022-12-29T12:13:57;10.90;99.90
42201;DHT22;27869;51.442;7.540;2022-12-29T12:16:29;10.90;99.90
42201;DHT22;27869;51.442;7.540;2022-12-29T12:19:03;10.90;99.90
42201;DHT22;27869;51.442;7.540;2022-12-29T12:21:34;10.90;99.90
42201;DHT22;27869;51.442;7.540;2022-12-29T12:24:23;10.90;99.90
42201;DHT22;27869;51.442;7.540;2022-12-29T12:26:59;10.90;99.90
42201;DHT22;27869;51.442;7.540;2022-12-29T12:29:34;10.90;99.90
42201;DHT22;27869;51.442;7.540;2022-12-29T12:32:12;10.90;99.90
42201;DHT22;27869;51.442;7.540;2022-12-29T12:34:44;10.90;99.90
42201;DHT22;27869;51.442;7.540;2022-12-29T12:37:34;10.90;99.90
42201;DHT22;27869;51.442;7.540;2022-12-29T12:40:22;10.90;99.90
42201;DHT22;27869;51.442;7.540;2022-12-29T12:43:03;10.90;99.90
42201;DHT22;27869;51.442;7.540;2022-12-29T12:45:45;10.90;99.90
42201;DHT22;27869;51.442;7.540;2022-12-29T12:48:24;10.90;99.90
42201;DHT22;27869;51.442;7.540;2022-12-29T12:51:03;10.80;99.90
42201;DHT22;27869;51.442;7.540;2022-12-29T12:53:42;10.90;99.90
42201;DHT22;27869;51.442;7.540;2022-12-29T12:56:26;10.80;99.90
42201;DHT22;27869;51.442;7.540;2022-12-29T12:59:02;10.90;99.90
42201;DHT22;27869;51.442;7.540;2022-12-29T13:01:38;10.80;99.90
42201;DHT22;27869;51.442;7.540;2022-12-29T13:07:14;10.80;99.90
42201;DHT22;27869;51.442;7.540;2022-12-29T13:09:53;10.80;99.90
42201;DHT22;27869;51.442;7.540;2022-12-29T13:12:30;10.80;99.90
42201;DHT22;27869;51.442;7.540;2022-12-29T13:15:11;10.80;99.90
42201;DHT22;27869;51.442;7.540;2022-12-29T13:17:46;10.80;99.90
42201;DHT22;27869;51.442;7.540;2022-12-29T13:20:23;10.80;99.90
42201;DHT22;27869;51.442;7.540;2022-12-29T13:22:57;10.80;99.90
42201;DHT22;27869;51.442;7.540;2022-12-29T13:25:32;10.80;99.90
42201;DHT22;27869;51.442;7.540;2022-12-29T13:28:06;10.70;99.90
42201;DHT22;27869;51.442;7.540;2022-12-29T13:30:41;10.70;99.90
42201;DHT22;27869;51.442;7.540;2022-12-29T13:33:17;10.70;99.90
42201;DHT22;27869;51.442;7.540;2022-12-29T13:35:55;10.70;99.90
42201;DHT22;27869;51.442;7.540;2022-12-29T13:38:26;10.70;99.90
42201;DHT22;27869;51.442;7.540;2022-12-29T13:41:01;10.70;99.90
42201;DHT22;27869;51.442;7.540;2022-12-29T13:43:31;10.70;99.90
42201;DHT22;27869;51.442;7.540;2022-12-29T13:46:05;10.70;99.90
42201;DHT22;27869;51.442;7.540;2022-12-29T13:48:39;10.70;99.90
42201;DHT22;27869;51.442;7.540;2022-12-29T13:51:09;10.70;99.90
42201;DHT22;27869;51.442;7.540;2022-12-29T13:53:42;10.70;99.90
42201;DHT22;27869;51.442;7.540;2022-12-29T13:56:17;10.70;99.90
42201;DHT22;27869;51.442;7.540;2022-12-29T13:58:54;10.70;99.90
42201;DHT22;27869;51.442;7.540;2022-12-29T14:01:27;10.60;99.90
42201;DHT22;27869;51.442;7.540;2022-12-29T14:03:56;10.60;99.90
42201;DHT22;27869;51.442;7.540;2022-12-29T14:06:25;10.60;99.90
42201;DHT22;27869;51.442;7.540;2022-12-29T14:08:54;10.60;99.90
42201;DHT22;27869;51.442;7.540;2022-12-29T14:11:30;10.60;99.90
42201;DHT22;27869;51.442;7.540;2022-12-29T14:14:00;10.60;99.90
42201;DHT22;27869;51.442;7.540;2022-12-29T14:16:36;10.60;99.90
42201;DHT22;27869;51.442;7.540;2022-12-29T14:19:13;10.60;99.90
42201;DHT22;27869;51.442;7.540;2022-12-29T14:21:50;10.60;99.90
42201;DHT22;27869;51.442;7.540;2022-12-29T14:24:39;10.60;99.90
42201;DHT22;27869;51.442;7.540;2022-12-29T14:33:19;10.60;99.90
42201;DHT22;27869;51.442;7.540;2022-12-29T14:35:48;10.60;99.90
42201;DHT22;27869;51.442;7.540;2022-12-29T14:38:21;10.60;99.90
42201;DHT22;27869;51.442;7.540;2022-12-29T14:40:49;10.60;99.90
42201;DHT22;27869;51.442;7.540;2022-12-29T14:43:26;10.60;99.90
42201;DHT22;27869;51.442;7.540;2022-12-29T14:46:01;10.60;99.90
42201;DHT22;27869;51.442;7.540;2022-12-29T14:48:35;10.60;99.90
42201;DHT22;27869;51.442;7.540;2022-12-29T14:51:17;10.60;99.90
42201;DHT22;27869;51.442;7.540;2022-12-29T14:53:47;10.60;99.90
42201;DHT22;27869;51.442;7.540;2022-12-29T14:56:16;10.60;99.90
42201;DHT22;27869;51.442;7.540;2022-12-29T14:58:50;10.60;99.90
42201;DHT22;27869;51.442;7.540;2022-12-29T15:01:24;10.60;99.90
42201;DHT22;27869;51.442;7.540;2022-12-29T15:03:56;10.60;99.90
42201;DHT22;27869;51.442;7.540;2022-12-29T15:06:25;10.60;99.90
42201;DHT22;27869;51.442;7.540;2022-12-29T15:09:00;10.60;99.90
42201;DHT22;27869;51.442;7.540;2022-12-29T15:11:42;10.60;99.90
42201;DHT22;27869;51.442;7.540;2022-12-29T15:14:32;10.60;99.90
42201;DHT22;27869;51.442;7.540;2022-12-29T15:17:08;10.60;99.90
42201;DHT22;27869;51.442;7.540;2022-12-29T15:19:36;10.60;99.90
42201;DHT22;27869;51.442;7.540;2022-12-29T15:22:03;10.50;99.90
42201;DHT22;27869;51.442;7.540;2022-12-29T15:24:30;10.60;99.90
42201;DHT22;27869;51.442;7.540;2022-12-29T15:26:57;10.60;99.90
42201;DHT22;27869;51.442;7.540;2022-12-29T15:29:36;10.50;99.90
42201;DHT22;27869;51.442;7.540;2022-12-29T15:32:20;10.50;99.90
42201;DHT22;27869;51.442;7.540;2022-12-29T15:34:49;10.50;99.90
42201;DHT22;27869;51.442;7.540;2022-12-29T15:37:19;10.50;99.90
42201;DHT22;27869;51.442;7.540;2022-12-29T15:39:48;10.50;99.90
42201;DHT22;27869;51.442;7.540;2022-12-29T15:42:42;10.50;99.90
42201;DHT22;27869;51.442;7.540;2022-12-29T15:45:12;10.40;99.90
42201;DHT22;27869;51.442;7.540;2022-12-29T15:47:43;10.40;99.90
42201;DHT22;27869;51.442;7.540;2022-12-29T15:50:20;10.40;99.90
42201;DHT22;27869;51.442;7.540;2022-12-29T15:52:48;10.40;99.90
42201;DHT22;27869;51.442;7.540;2022-12-29T15:55:30;10.40;99.90
42201;DHT22;27869;51.442;7.540;2022-12-29T15:57:59;10.40;99.90
42201;DHT22;27869;51.442;7.540;2022-12-29T16:00:28;10.40;99.90
42201;DHT22;27869;51.442;7.540;2022-12-29T16:02:59;10.40;99.90
42201;DHT22;27869;51.442;7.540;2022-12-29T16:05:32;10.30;99.90
42201;DHT22;27869;51.442;7.540;2022-12-29T16:08:00;10.30;99.90
42201;DHT22;27869;51.442;7.540;2022-12-29T16:10:32;10.30;99.90
42201;DHT22;27869;51.442;7.540;2022-12-29T16:13:04;10.30;99.90
42201;DHT22;27869;51.442;7.540;2022-12-29T16:15:32;10.30;99.90